createdAt,value
2018-11-11T00:00:20.887Z,16.95
2018-11-11T00:02:50.398Z,16.27
2018-11-11T00:05:19.258Z,15.48
2018-11-11T00:07:48.211Z,16.15
2018-11-11T00:10:17.788Z,16.48
2018-11-11T00:12:46.198Z,15.40
2018-11-11T00:15:16.217Z,15.13
2018-11-11T00:17:45.319Z,15.20
2018-11-11T00:20:14.678Z,15.20
2018-11-11T00:22:43.286Z,16.15
2018-11-11T00:25:15.291Z,16.40
2018-11-11T00:27:48.819Z,14.28
2018-11-11T00:30:17.792Z,15.18
2018-11-11T00:32:45.620Z,14.68
2018-11-11T00:35:13.229Z,14.25
2018-11-11T00:37:42.096Z,15.30
2018-11-11T00:40:11.576Z,14.85
2018-11-11T00:42:40.387Z,14.28
2018-11-11T00:45:10.607Z,15.20
2018-11-11T00:47:39.204Z,14.65
2018-11-11T00:50:10.524Z,15.10
2018-11-11T00:52:39.276Z,14.58
2018-11-11T00:55:10.125Z,13.58
2018-11-11T00:57:38.478Z,14.13
2018-11-11T01:00:10.690Z,14.00
2018-11-11T01:02:38.111Z,13.95
2018-11-11T01:05:09.379Z,13.58
2018-11-11T01:07:37.535Z,13.58
2018-11-11T01:10:05.914Z,12.85
2018-11-11T01:12:33.638Z,12.70
2018-11-11T01:15:01.917Z,12.60
2018-11-11T01:17:29.683Z,11.83
2018-11-11T01:19:57.338Z,10.68
2018-11-11T01:22:25.118Z,12.00
2018-11-11T01:24:52.455Z,12.45
2018-11-11T01:27:20.049Z,12.28
2018-11-11T01:29:47.641Z,11.50
2018-11-11T01:32:15.238Z,11.12
2018-11-11T01:34:42.607Z,12.18
2018-11-11T01:37:10.153Z,11.60
2018-11-11T01:39:37.728Z,12.33
2018-11-11T01:42:05.567Z,12.65
2018-11-11T01:44:33.167Z,11.45
2018-11-11T01:47:00.525Z,12.85
2018-11-11T01:49:28.122Z,12.60
2018-11-11T01:51:56.008Z,12.30
2018-11-11T01:54:23.407Z,12.25
2018-11-11T01:56:50.733Z,13.25
2018-11-11T01:59:18.069Z,13.03
2018-11-11T02:01:45.424Z,11.70
2018-11-11T02:04:13.002Z,12.65
2018-11-11T02:06:40.597Z,13.00
2018-11-11T02:09:08.772Z,13.80
2018-11-11T02:11:36.350Z,13.68
2018-11-11T02:14:03.847Z,12.35
2018-11-11T02:16:31.391Z,13.32
2018-11-11T02:18:59.473Z,12.80
2018-11-11T02:21:26.919Z,11.88
2018-11-11T02:23:54.311Z,12.37
2018-11-11T02:26:21.675Z,12.75
2018-11-11T02:28:49.229Z,12.25
2018-11-11T02:31:17.117Z,11.30
2018-11-11T02:33:44.457Z,12.20
2018-11-11T02:36:11.858Z,10.78
2018-11-11T02:38:39.892Z,10.35
2018-11-11T02:41:11.285Z,9.80
2018-11-11T02:43:54.095Z,10.72
2018-11-11T02:46:22.210Z,10.60
2018-11-11T02:48:49.768Z,11.00
2018-11-11T02:51:17.398Z,10.43
2018-11-11T02:53:45.063Z,9.23
2018-11-11T02:56:12.445Z,10.28
2018-11-11T02:58:39.766Z,8.50
2018-11-11T03:01:07.328Z,9.88
2018-11-11T03:03:34.990Z,10.10
2018-11-11T03:06:02.477Z,9.10
2018-11-11T03:08:30.013Z,9.33
2018-11-11T03:10:57.563Z,9.98
2018-11-11T03:13:24.944Z,9.15
2018-11-11T03:15:52.281Z,10.15
2018-11-11T03:18:19.634Z,10.40
2018-11-11T03:20:49.449Z,9.43
2018-11-11T03:23:17.132Z,9.68
2018-11-11T03:25:44.690Z,9.83
2018-11-11T03:28:12.475Z,10.95
2018-11-11T03:30:40.049Z,9.78
2018-11-11T03:33:07.626Z,9.65
2018-11-11T03:35:35.010Z,9.10
2018-11-11T03:38:02.557Z,10.10
2018-11-11T03:40:30.157Z,9.50
2018-11-11T03:42:57.754Z,9.08
2018-11-11T03:45:25.622Z,10.60
2018-11-11T03:47:53.093Z,9.40
2018-11-11T03:50:20.740Z,9.68
2018-11-11T03:52:48.825Z,9.45
2018-11-11T03:55:16.990Z,9.20
2018-11-11T03:57:44.315Z,10.20
2018-11-11T04:00:12.879Z,9.05
2018-11-11T04:02:40.812Z,8.98
2018-11-11T04:05:08.928Z,9.73
2018-11-11T04:07:37.177Z,10.00
2018-11-11T04:10:05.190Z,10.28
2018-11-11T04:12:32.859Z,9.68
2018-11-11T04:15:00.447Z,9.05
2018-11-11T04:17:27.995Z,10.03
2018-11-11T04:19:55.374Z,10.28
2018-11-11T04:22:23.032Z,11.85
2018-11-11T04:24:53.803Z,10.40
2018-11-11T04:27:21.715Z,9.40
2018-11-11T04:29:50.372Z,10.35
2018-11-11T04:32:18.303Z,9.80
2018-11-11T04:34:45.892Z,9.98
2018-11-11T04:37:13.814Z,9.88
2018-11-11T04:39:41.999Z,9.93
2018-11-11T04:42:10.582Z,9.35
2018-11-11T04:44:38.621Z,9.15
2018-11-11T04:47:06.215Z,8.90
2018-11-11T04:49:33.601Z,8.85
2018-11-11T04:52:00.942Z,7.65
2018-11-11T04:54:28.279Z,7.42
2018-11-11T04:56:55.641Z,7.62
2018-11-11T04:59:22.950Z,7.55
2018-11-11T05:01:50.562Z,7.90
2018-11-11T05:04:18.439Z,7.20
2018-11-11T05:06:45.837Z,7.70
2018-11-11T05:09:17.449Z,8.48
2018-11-11T05:11:44.789Z,7.50
2018-11-11T05:14:12.276Z,7.15
2018-11-11T05:16:40.205Z,8.40
2018-11-11T05:19:10.032Z,7.55
2018-11-11T05:21:37.583Z,7.58
2018-11-11T05:24:05.309Z,7.80
2018-11-11T05:26:32.676Z,7.22
2018-11-11T05:29:00.333Z,6.78
2018-11-11T05:31:28.066Z,6.37
2018-11-11T05:33:56.069Z,6.40
2018-11-11T05:36:23.497Z,6.15
2018-11-11T05:38:51.661Z,7.25
2018-11-11T05:41:19.055Z,6.40
2018-11-11T05:43:46.403Z,5.95
2018-11-11T05:46:14.003Z,5.72
2018-11-11T05:48:41.318Z,5.58
2018-11-11T05:51:09.087Z,6.40
2018-11-11T05:53:36.803Z,6.47
2018-11-11T05:56:04.179Z,6.37
2018-11-11T05:58:31.998Z,6.20
2018-11-11T06:00:59.587Z,7.12
2018-11-11T06:03:27.716Z,6.10
2018-11-11T06:05:55.080Z,6.72
2018-11-11T06:08:22.397Z,6.40
2018-11-11T06:10:49.758Z,7.90
2018-11-11T06:13:17.127Z,6.92
2018-11-11T06:15:44.630Z,7.83
2018-11-11T06:18:11.990Z,7.85
2018-11-11T06:20:39.318Z,7.50
2018-11-11T06:23:06.963Z,9.13
2018-11-11T06:25:34.287Z,8.38
2018-11-11T06:28:02.026Z,9.43
2018-11-11T06:30:29.606Z,9.78
2018-11-11T06:32:57.266Z,10.28
2018-11-11T06:35:24.582Z,9.58
2018-11-11T06:37:51.931Z,10.10
2018-11-11T06:40:19.230Z,10.63
2018-11-11T06:42:47.535Z,10.13
2018-11-11T06:45:19.293Z,11.08
2018-11-11T06:47:46.795Z,9.63
2018-11-11T06:50:16.055Z,9.93
2018-11-11T06:52:44.121Z,10.70
2018-11-11T06:55:11.779Z,9.08
2018-11-11T06:57:39.639Z,9.65
2018-11-11T07:00:07.773Z,8.90
2018-11-11T07:02:39.461Z,10.95
2018-11-11T07:05:07.511Z,10.80
2018-11-11T07:07:35.120Z,10.45
2018-11-11T07:10:02.491Z,10.43
2018-11-11T07:12:29.864Z,10.53
2018-11-11T07:14:57.465Z,11.63
2018-11-11T07:17:25.102Z,10.10
2018-11-11T07:19:52.703Z,10.00
2018-11-11T07:22:20.551Z,11.22
2018-11-11T07:24:47.979Z,10.60
2018-11-11T07:27:15.557Z,11.53
2018-11-11T07:29:43.273Z,11.03
2018-11-11T07:32:10.864Z,10.50
2018-11-11T07:34:38.798Z,10.05
2018-11-11T07:37:06.623Z,10.88
2018-11-11T07:39:34.416Z,10.63
2018-11-11T07:42:02.001Z,11.25
2018-11-11T07:44:29.435Z,10.25
2018-11-11T07:46:57.036Z,11.68
2018-11-11T07:49:24.703Z,11.78
2018-11-11T07:51:52.128Z,10.43
2018-11-11T07:54:19.543Z,10.75
2018-11-11T07:56:47.422Z,10.78
2018-11-11T07:59:14.734Z,11.63
2018-11-11T08:01:42.170Z,11.38
2018-11-11T08:04:09.816Z,10.03
2018-11-11T08:06:37.386Z,9.80
2018-11-11T08:09:06.157Z,12.18
2018-11-11T08:11:39.080Z,11.08
2018-11-11T08:14:07.279Z,10.70
2018-11-11T08:16:34.607Z,11.43
2018-11-11T08:19:01.941Z,10.68
2018-11-11T08:21:30.150Z,10.95
2018-11-11T08:23:57.501Z,10.23
2018-11-11T08:26:25.103Z,11.95
2018-11-11T08:28:52.667Z,10.75
2018-11-11T08:31:20.014Z,10.48
2018-11-11T08:33:47.362Z,10.13
2018-11-11T08:36:14.765Z,11.10
2018-11-11T08:38:42.309Z,9.48
2018-11-11T08:41:09.651Z,10.28
2018-11-11T08:43:36.987Z,10.60
2018-11-11T08:46:04.556Z,9.28
2018-11-11T08:48:32.123Z,9.30
2018-11-11T08:50:59.717Z,8.55
2018-11-11T08:53:27.535Z,9.73
2018-11-11T08:55:54.932Z,8.90
2018-11-11T08:58:22.526Z,9.05
2018-11-11T09:00:50.999Z,9.55
2018-11-11T09:03:18.441Z,8.85
2018-11-11T09:05:45.797Z,9.70
2018-11-11T09:08:13.097Z,8.45
2018-11-11T09:10:40.481Z,8.93
2018-11-11T09:13:07.923Z,9.30
2018-11-11T09:15:35.515Z,8.70
2018-11-11T09:18:02.865Z,8.90
2018-11-11T09:20:30.268Z,8.78
2018-11-11T09:22:57.823Z,8.73
2018-11-11T09:25:25.211Z,8.28
2018-11-11T09:27:52.890Z,8.30
2018-11-11T09:30:20.294Z,7.60
2018-11-11T09:32:47.585Z,8.30
2018-11-11T09:35:15.172Z,8.53
2018-11-11T09:37:42.541Z,8.20
2018-11-11T09:40:11.120Z,7.60
2018-11-11T09:42:38.488Z,7.55
2018-11-11T09:45:07.504Z,8.00
2018-11-11T09:47:34.859Z,8.20
2018-11-11T09:50:02.649Z,7.33
2018-11-11T09:52:30.059Z,7.70
2018-11-11T09:54:58.148Z,8.48
2018-11-11T09:57:26.242Z,7.67
2018-11-11T09:59:53.727Z,7.33
2018-11-11T10:02:21.123Z,6.78
2018-11-11T10:04:53.398Z,6.75
2018-11-11T10:07:30.416Z,7.25
2018-11-11T10:10:07.091Z,7.55
2018-11-11T10:12:44.776Z,6.55
2018-11-11T10:15:16.600Z,7.10
2018-11-11T10:19:53.015Z,7.73
2018-11-11T10:22:25.389Z,7.43
2018-11-11T10:24:57.205Z,7.87
2018-11-11T10:27:29.990Z,6.80
2018-11-11T10:30:01.485Z,6.73
2018-11-11T10:33:37.328Z,7.10
2018-11-11T10:36:11.087Z,6.67
2018-11-11T10:38:43.803Z,6.43
2018-11-11T10:41:22.571Z,6.10
2018-11-11T10:43:55.883Z,6.00
2018-11-11T10:46:26.427Z,5.90
2018-11-11T10:49:00.570Z,6.13
2018-11-11T10:51:28.249Z,5.40
2018-11-11T10:53:55.737Z,4.67
2018-11-11T10:56:23.080Z,5.17
2018-11-11T10:58:50.429Z,5.43
2018-11-11T11:01:23.121Z,5.53
2018-11-11T11:03:50.843Z,5.13
2018-11-11T11:06:22.541Z,5.10
2018-11-11T11:08:55.267Z,5.33
2018-11-11T11:11:22.646Z,5.10
2018-11-11T11:13:50.120Z,5.20
2018-11-11T11:16:17.472Z,5.53
2018-11-11T11:18:44.777Z,5.60
2018-11-11T11:21:12.145Z,5.70
2018-11-11T11:23:39.473Z,5.00
2018-11-11T11:26:07.029Z,5.50
2018-11-11T11:28:34.431Z,5.00
2018-11-11T11:31:01.765Z,4.87
2018-11-11T11:33:29.356Z,4.30
2018-11-11T11:35:56.696Z,3.90
2018-11-11T11:38:24.232Z,3.90
2018-11-11T11:40:51.906Z,3.03
2018-11-11T11:43:19.490Z,3.27
2018-11-11T11:45:47.117Z,3.10
2018-11-11T11:48:15.363Z,3.00
2018-11-11T11:50:43.019Z,3.30
2018-11-11T11:53:10.599Z,8.30
2018-11-11T11:55:38.190Z,3.98
2018-11-11T11:58:11.119Z,3.30
2018-11-11T12:00:38.460Z,3.77
2018-11-11T12:03:05.781Z,3.60
2018-11-11T12:05:33.346Z,2.72
2018-11-11T12:08:00.730Z,2.83
2018-11-11T12:10:28.162Z,3.10
2018-11-11T12:12:55.468Z,2.80
2018-11-11T12:15:23.227Z,2.90
2018-11-11T12:17:50.587Z,2.67
2018-11-11T12:20:18.578Z,3.30
2018-11-11T12:22:46.347Z,3.27
2018-11-11T12:25:13.693Z,2.85
2018-11-11T12:27:41.248Z,3.30
2018-11-11T12:30:11.519Z,3.22
2018-11-11T12:32:38.905Z,3.27
2018-11-11T12:35:07.465Z,3.10
2018-11-11T12:37:34.942Z,3.05
2018-11-11T12:40:02.484Z,2.65
2018-11-11T12:42:29.715Z,2.62
2018-11-11T12:44:57.263Z,2.75
2018-11-11T12:47:24.828Z,2.70
2018-11-11T12:49:52.389Z,3.00
2018-11-11T12:52:20.469Z,2.70
2018-11-11T12:54:47.806Z,2.20
2018-11-11T12:57:15.154Z,2.70
2018-11-11T12:59:42.734Z,2.85
2018-11-11T13:02:10.223Z,2.20
2018-11-11T13:04:37.869Z,2.60
2018-11-11T13:07:05.821Z,2.70
2018-11-11T13:09:33.580Z,2.27
2018-11-11T13:12:02.676Z,2.45
2018-11-11T13:14:31.105Z,2.65
2018-11-11T13:16:58.724Z,2.50
2018-11-11T13:19:26.332Z,2.40
2018-11-11T13:21:53.802Z,2.80
2018-11-11T13:24:21.161Z,2.70
2018-11-11T13:26:48.549Z,3.00
2018-11-11T13:29:15.995Z,2.40
2018-11-11T13:31:43.482Z,2.85
2018-11-11T13:34:11.165Z,3.15
2018-11-11T13:36:38.924Z,3.20
2018-11-11T13:39:08.347Z,2.58
2018-11-11T13:41:35.864Z,2.62
2018-11-11T13:44:03.569Z,2.55
2018-11-11T13:46:31.215Z,2.50
2018-11-11T13:48:59.316Z,2.95
2018-11-11T13:51:26.924Z,2.60
2018-11-11T13:53:54.291Z,2.83
2018-11-11T13:56:21.877Z,2.30
2018-11-11T13:58:49.282Z,2.62
2018-11-11T14:01:20.167Z,2.30
2018-11-11T14:03:47.558Z,2.42
2018-11-11T14:06:15.040Z,3.10
2018-11-11T14:08:42.440Z,2.90
2018-11-11T14:11:10.415Z,2.60
2018-11-11T14:13:38.869Z,2.62
2018-11-11T14:16:06.275Z,2.60
2018-11-11T14:18:33.801Z,2.60
2018-11-11T14:21:01.043Z,2.85
2018-11-11T14:23:30.319Z,2.60
2018-11-11T14:25:57.954Z,3.00
2018-11-11T14:28:25.316Z,2.50
2018-11-11T14:30:55.848Z,2.80
2018-11-11T14:33:26.441Z,2.85
2018-11-11T14:35:57.460Z,2.92
2018-11-11T14:38:30.800Z,2.50
2018-11-11T14:41:00.836Z,3.05
2018-11-11T14:43:31.181Z,2.65
2018-11-11T14:46:00.810Z,3.10
2018-11-11T14:48:31.215Z,3.05
2018-11-11T14:50:59.944Z,3.00
2018-11-11T14:53:28.972Z,2.77
2018-11-11T14:55:57.849Z,3.10
2018-11-11T14:58:27.793Z,3.27
2018-11-11T15:00:55.226Z,2.92
2018-11-11T15:03:28.526Z,3.60
2018-11-11T15:05:56.069Z,3.08
2018-11-11T15:08:24.169Z,3.45
2018-11-11T15:10:51.601Z,3.10
2018-11-11T15:13:19.018Z,2.90
2018-11-11T15:15:46.397Z,3.20
2018-11-11T15:18:14.173Z,3.12
2018-11-11T15:20:41.627Z,3.17
2018-11-11T15:23:10.825Z,3.00
2018-11-11T15:25:38.262Z,3.52
2018-11-11T15:28:05.999Z,3.25
2018-11-11T15:30:34.927Z,4.00
2018-11-11T15:33:03.352Z,3.62
2018-11-11T15:35:30.978Z,3.00
2018-11-11T15:37:58.639Z,3.50
2018-11-11T15:40:31.767Z,4.58
2018-11-11T15:42:59.408Z,3.25
2018-11-11T15:45:28.042Z,3.35
2018-11-11T15:47:55.610Z,3.70
2018-11-11T15:50:25.854Z,3.98
2018-11-11T15:52:57.794Z,3.77
2018-11-11T15:55:26.227Z,3.83
2018-11-11T15:57:53.685Z,3.75
2018-11-11T16:00:22.666Z,3.77
2018-11-11T16:02:50.019Z,3.47
2018-11-11T16:05:18.111Z,4.15
2018-11-11T16:07:46.217Z,3.35
2018-11-11T16:10:14.966Z,3.50
2018-11-11T16:12:42.830Z,3.20
2018-11-11T16:15:11.582Z,3.25
2018-11-11T16:17:38.986Z,3.55
2018-11-11T16:20:09.003Z,3.50
2018-11-11T16:22:36.486Z,3.90
2018-11-11T16:25:04.067Z,4.03
2018-11-11T16:27:31.730Z,4.05
2018-11-11T16:29:59.413Z,4.05
2018-11-11T16:32:26.756Z,3.33
2018-11-11T16:34:54.118Z,3.80
2018-11-11T16:37:21.664Z,3.70
2018-11-11T16:39:49.500Z,4.30
2018-11-11T16:42:16.910Z,3.90
2018-11-11T16:44:44.328Z,4.75
2018-11-11T16:47:12.952Z,3.77
2018-11-11T16:49:40.386Z,3.47
2018-11-11T16:52:07.773Z,4.17
2018-11-11T16:54:35.123Z,3.80
2018-11-11T16:57:02.680Z,3.90
2018-11-11T16:59:30.092Z,4.47
2018-11-11T17:01:57.706Z,3.80
2018-11-11T17:04:25.530Z,3.87
2018-11-11T17:06:53.279Z,3.45
2018-11-11T17:09:20.924Z,3.20
2018-11-11T17:11:48.814Z,3.40
2018-11-11T17:14:17.169Z,3.27
2018-11-11T17:16:44.864Z,3.30
2018-11-11T17:19:12.746Z,3.45
2018-11-11T17:21:40.503Z,3.77
2018-11-11T17:24:07.779Z,3.45
2018-11-11T17:26:35.169Z,3.20
2018-11-11T17:29:03.182Z,3.40
2018-11-11T17:31:30.631Z,3.55
2018-11-11T17:33:57.995Z,3.00
2018-11-11T17:36:25.425Z,3.72
2018-11-11T17:38:53.107Z,3.60
2018-11-11T17:41:20.578Z,4.22
2018-11-11T17:43:48.192Z,2.87
2018-11-11T17:46:16.014Z,3.25
2018-11-11T17:48:43.516Z,3.20
2018-11-11T17:51:11.112Z,3.70
2018-11-11T17:53:38.482Z,3.15
2018-11-11T17:56:06.009Z,2.90
2018-11-11T17:58:33.343Z,3.25
2018-11-11T18:01:00.746Z,3.80
2018-11-11T18:03:28.204Z,3.47
2018-11-11T18:05:55.965Z,3.35
2018-11-11T18:08:23.737Z,3.90
2018-11-11T18:10:51.388Z,3.40
2018-11-11T18:13:19.256Z,3.10
2018-11-11T18:15:46.889Z,3.70
2018-11-11T18:18:14.454Z,3.58
2018-11-11T18:20:42.500Z,3.27
2018-11-11T18:23:10.132Z,4.03
2018-11-11T18:25:37.513Z,3.10
2018-11-11T18:28:05.089Z,3.25
2018-11-11T18:30:33.838Z,3.60
2018-11-11T18:33:01.202Z,3.40
2018-11-11T18:35:28.786Z,4.33
2018-11-11T18:37:56.270Z,3.05
2018-11-11T18:40:25.903Z,3.67
2018-11-11T18:42:55.550Z,3.37
2018-11-11T18:45:25.880Z,3.55
2018-11-11T18:47:54.255Z,2.98
2018-11-11T18:50:26.224Z,2.83
2018-11-11T18:52:54.553Z,3.05
2018-11-11T18:55:24.458Z,3.30
2018-11-11T18:57:52.291Z,3.20
2018-11-11T19:00:24.041Z,3.80
2018-11-11T19:02:53.781Z,3.60
2018-11-11T19:05:23.393Z,3.37
2018-11-11T19:07:52.859Z,3.45
2018-11-11T19:10:25.115Z,3.20
2018-11-11T19:12:54.379Z,3.47
2018-11-11T19:15:22.196Z,3.40
2018-11-11T19:17:50.736Z,3.22
2018-11-11T19:20:19.937Z,3.47
2018-11-11T19:22:48.955Z,3.10
2018-11-11T19:25:19.181Z,3.42
2018-11-11T19:27:48.253Z,2.87
2018-11-11T19:30:17.823Z,3.12
2018-11-11T19:32:46.697Z,2.95
2018-11-11T19:35:15.065Z,3.90
2018-11-11T19:37:44.403Z,3.08
2018-11-11T19:40:14.292Z,3.42
2018-11-11T19:42:42.335Z,3.08
2018-11-11T19:45:11.496Z,3.10
2018-11-11T19:47:39.951Z,2.85
2018-11-11T19:50:10.116Z,2.90
2018-11-11T19:52:40.027Z,3.27
2018-11-11T19:55:09.244Z,3.12
2018-11-11T19:57:38.957Z,2.87
2018-11-11T20:00:09.453Z,2.98
2018-11-11T20:02:39.728Z,2.75
2018-11-11T20:05:09.815Z,3.40
2018-11-11T20:07:37.369Z,3.02
2018-11-11T20:10:06.989Z,3.20
2018-11-11T20:12:39.076Z,3.67
2018-11-11T20:15:11.676Z,2.70
2018-11-11T20:17:41.252Z,3.62
2018-11-11T20:20:10.806Z,3.62
2018-11-11T20:22:40.092Z,3.37
2018-11-11T20:25:09.354Z,3.00
2018-11-11T20:27:39.310Z,3.80
2018-11-11T20:30:09.962Z,3.12
2018-11-11T20:32:41.465Z,2.72
2018-11-11T20:35:11.900Z,3.37
2018-11-11T20:37:42.078Z,3.90
2018-11-11T20:40:11.295Z,3.20
2018-11-11T20:42:39.395Z,3.00
2018-11-11T20:45:07.873Z,3.62
2018-11-11T20:47:38.367Z,3.10
2018-11-11T20:50:08.880Z,2.40
2018-11-11T20:52:36.839Z,4.53
2018-11-11T20:55:07.494Z,2.90
2018-11-11T20:57:37.478Z,3.02
2018-11-11T21:00:07.784Z,3.27
2018-11-11T21:02:35.788Z,3.20
2018-11-11T21:05:05.185Z,3.25
2018-11-11T21:07:33.432Z,3.25
2018-11-11T21:10:01.183Z,3.90
2018-11-11T21:12:28.551Z,2.75
2018-11-11T21:14:57.988Z,2.85
2018-11-11T21:17:26.047Z,3.33
2018-11-11T21:19:54.348Z,3.92
2018-11-11T21:22:22.707Z,3.33
2018-11-11T21:24:50.954Z,3.15
2018-11-11T21:27:18.990Z,2.77
2018-11-11T21:29:46.821Z,3.62
2018-11-11T21:32:14.924Z,3.47
2018-11-11T21:34:42.246Z,3.58
2018-11-11T21:37:13.038Z,3.10
2018-11-11T21:39:42.119Z,3.20
2018-11-11T21:42:09.513Z,3.20
2018-11-11T21:44:37.142Z,3.20
2018-11-11T21:47:04.507Z,3.20
2018-11-11T21:49:32.309Z,3.00
2018-11-11T21:52:00.361Z,2.70
2018-11-11T21:54:27.962Z,2.83
2018-11-11T21:56:55.321Z,3.15
2018-11-11T21:59:22.682Z,2.55
2018-11-11T22:01:50.294Z,3.20
2018-11-11T22:04:17.623Z,2.98
2018-11-11T22:06:45.594Z,2.60
2018-11-11T22:09:13.094Z,2.30
2018-11-11T22:11:40.884Z,2.60
2018-11-11T22:14:09.133Z,2.95
2018-11-11T22:16:36.484Z,2.50
2018-11-11T22:19:03.840Z,2.95
2018-11-11T22:21:31.872Z,2.35
2018-11-11T22:23:59.453Z,2.30
2018-11-11T22:26:27.103Z,2.90
2018-11-11T22:28:54.754Z,3.00
2018-11-11T22:31:22.577Z,2.92
2018-11-11T22:33:50.418Z,2.92
2018-11-11T22:36:17.955Z,2.90
2018-11-11T22:38:45.515Z,2.85
2018-11-11T22:41:12.976Z,2.62
2018-11-11T22:43:40.310Z,2.50
2018-11-11T22:46:07.658Z,2.50
2018-11-11T22:48:34.968Z,2.40
2018-11-11T22:51:02.284Z,2.50
2018-11-11T22:53:30.314Z,2.20
2018-11-11T22:55:59.790Z,2.40
2018-11-11T22:58:27.319Z,2.30
2018-11-11T23:01:00.427Z,3.35
2018-11-11T23:03:27.794Z,2.10
2018-11-11T23:05:55.422Z,3.10
2018-11-11T23:08:22.991Z,2.60
2018-11-11T23:10:50.585Z,2.30
2018-11-11T23:13:18.246Z,2.15
2018-11-11T23:15:45.821Z,2.35
2018-11-11T23:18:13.131Z,2.20
2018-11-11T23:20:40.681Z,1.92
2018-11-11T23:23:08.029Z,2.42
2018-11-11T23:25:35.621Z,1.90
2018-11-11T23:28:03.293Z,2.10
2018-11-11T23:30:30.613Z,2.20
2018-11-11T23:32:57.955Z,2.00
2018-11-11T23:35:25.804Z,1.90
2018-11-11T23:37:53.171Z,2.25
2018-11-11T23:40:20.748Z,2.30
2018-11-11T23:42:49.216Z,2.17
2018-11-11T23:45:16.716Z,2.10
2018-11-11T23:47:44.290Z,2.02
2018-11-11T23:50:19.129Z,2.10
2018-11-11T23:52:48.379Z,2.20
2018-11-11T23:55:18.376Z,1.80
2018-11-11T23:57:45.829Z,2.25
